sensor_id;sensor_type;location;lat;lon;timestamp;P1;durP1;ratioP1;P2;durP2;ratioP2
70450;SDS011;58869;51.982;4.450;2023-04-15T00:01:24;6.86;;;6.86;;
70450;SDS011;58869;51.982;4.450;2023-04-15T00:03:50;6.97;;;6.97;;
70450;SDS011;58869;51.982;4.450;2023-04-15T00:06:18;6.98;;;6.98;;
70450;SDS011;58869;51.982;4.450;2023-04-15T00:08:45;6.55;;;6.55;;
70450;SDS011;58869;51.982;4.450;2023-04-15T00:11:11;7.16;;;7.16;;
70450;SDS011;58869;51.982;4.450;2023-04-15T00:13:38;7.00;;;7.00;;
70450;SDS011;58869;51.982;4.450;2023-04-15T00:16:13;7.18;;;7.18;;
70450;SDS011;58869;51.982;4.450;2023-04-15T00:18:38;6.98;;;6.98;;
70450;SDS011;58869;51.982;4.450;2023-04-15T00:21:04;7.29;;;7.29;;
70450;SDS011;58869;51.982;4.450;2023-04-15T00:23:30;7.46;;;7.46;;
70450;SDS011;58869;51.982;4.450;2023-04-15T00:25:56;7.07;;;7.07;;
70450;SDS011;58869;51.982;4.450;2023-04-15T00:28:21;7.27;;;7.27;;
70450;SDS011;58869;51.982;4.450;2023-04-15T00:30:47;7.37;;;7.37;;
70450;SDS011;58869;51.982;4.450;2023-04-15T00:33:13;7.56;;;7.56;;
70450;SDS011;58869;51.982;4.450;2023-04-15T00:35:40;7.62;;;7.62;;
70450;SDS011;58869;51.982;4.450;2023-04-15T00:38:06;7.49;;;7.49;;
70450;SDS011;58869;51.982;4.450;2023-04-15T00:40:34;7.32;;;7.32;;
70450;SDS011;58869;51.982;4.450;2023-04-15T00:43:06;7.41;;;7.41;;
70450;SDS011;58869;51.982;4.450;2023-04-15T00:45:38;7.71;;;7.71;;
70450;SDS011;58869;51.982;4.450;2023-04-15T00:48:09;7.79;;;7.79;;
70450;SDS011;58869;51.982;4.450;2023-04-15T00:50:35;8.04;;;8.04;;
70450;SDS011;58869;51.982;4.450;2023-04-15T00:53:01;8.08;;;8.08;;
70450;SDS011;58869;51.982;4.450;2023-04-15T00:55:26;7.99;;;7.99;;
70450;SDS011;58869;51.982;4.450;2023-04-15T00:57:52;8.05;;;8.05;;
70450;SDS011;58869;51.982;4.450;2023-04-15T01:00:17;8.54;;;8.54;;
70450;SDS011;58869;51.982;4.450;2023-04-15T01:02:44;8.25;;;8.25;;
70450;SDS011;58869;51.982;4.450;2023-04-15T01:05:10;8.31;;;8.31;;
70450;SDS011;58869;51.982;4.450;2023-04-15T01:07:36;8.57;;;8.57;;
70450;SDS011;58869;51.982;4.450;2023-04-15T01:10:02;8.92;;;8.92;;
70450;SDS011;58869;51.982;4.450;2023-04-15T01:12:34;8.83;;;8.83;;
70450;SDS011;58869;51.982;4.450;2023-04-15T01:15:01;9.16;;;9.16;;
70450;SDS011;58869;51.982;4.450;2023-04-15T01:17:27;9.36;;;9.36;;
70450;SDS011;58869;51.982;4.450;2023-04-15T01:19:54;9.55;;;9.55;;
70450;SDS011;58869;51.982;4.450;2023-04-15T01:22:22;9.36;;;9.36;;
70450;SDS011;58869;51.982;4.450;2023-04-15T01:27:44;9.84;;;9.84;;
70450;SDS011;58869;51.982;4.450;2023-04-15T01:30:10;9.55;;;9.55;;
70450;SDS011;58869;51.982;4.450;2023-04-15T01:32:36;9.73;;;9.73;;
70450;SDS011;58869;51.982;4.450;2023-04-15T01:35:02;9.19;;;9.19;;
70450;SDS011;58869;51.982;4.450;2023-04-15T01:37:27;9.42;;;9.42;;
70450;SDS011;58869;51.982;4.450;2023-04-15T01:39:53;9.82;;;9.82;;
70450;SDS011;58869;51.982;4.450;2023-04-15T01:42:20;9.60;;;9.60;;
70450;SDS011;58869;51.982;4.450;2023-04-15T01:44:46;10.02;;;10.02;;
70450;SDS011;58869;51.982;4.450;2023-04-15T01:47:17;9.58;;;9.58;;
70450;SDS011;58869;51.982;4.450;2023-04-15T01:49:45;9.88;;;9.88;;
70450;SDS011;58869;51.982;4.450;2023-04-15T01:52:11;9.62;;;9.62;;
70450;SDS011;58869;51.982;4.450;2023-04-15T01:54:44;9.39;;;9.39;;
70450;SDS011;58869;51.982;4.450;2023-04-15T01:57:10;9.58;;;9.58;;
70450;SDS011;58869;51.982;4.450;2023-04-15T01:59:35;9.68;;;9.68;;
70450;SDS011;58869;51.982;4.450;2023-04-15T02:02:01;10.10;;;10.10;;
70450;SDS011;58869;51.982;4.450;2023-04-15T02:04:29;10.01;;;10.01;;
70450;SDS011;58869;51.982;4.450;2023-04-15T02:06:55;10.07;;;10.07;;
70450;SDS011;58869;51.982;4.450;2023-04-15T02:09:21;10.42;;;10.42;;
70450;SDS011;58869;51.982;4.450;2023-04-15T02:11:47;10.20;;;10.20;;
70450;SDS011;58869;51.982;4.450;2023-04-15T02:14:12;10.06;;;10.06;;
70450;SDS011;58869;51.982;4.450;2023-04-15T02:16:38;10.23;;;10.23;;
70450;SDS011;58869;51.982;4.450;2023-04-15T02:19:04;10.22;;;10.22;;
70450;SDS011;58869;51.982;4.450;2023-04-15T02:21:30;10.59;;;10.59;;
70450;SDS011;58869;51.982;4.450;2023-04-15T02:23:56;10.79;;;10.79;;
70450;SDS011;58869;51.982;4.450;2023-04-15T02:26:22;10.54;;;10.54;;
70450;SDS011;58869;51.982;4.450;2023-04-15T02:28:49;10.18;;;10.18;;
70450;SDS011;58869;51.982;4.450;2023-04-15T02:31:15;10.22;;;10.22;;
70450;SDS011;58869;51.982;4.450;2023-04-15T02:33:41;10.56;;;10.56;;
70450;SDS011;58869;51.982;4.450;2023-04-15T02:36:09;10.45;;;10.45;;
70450;SDS011;58869;51.982;4.450;2023-04-15T02:38:38;10.14;;;10.14;;
70450;SDS011;58869;51.982;4.450;2023-04-15T02:41:13;10.55;;;10.55;;
70450;SDS011;58869;51.982;4.450;2023-04-15T02:43:45;10.57;;;10.57;;
70450;SDS011;58869;51.982;4.450;2023-04-15T02:46:11;9.88;;;9.88;;
70450;SDS011;58869;51.982;4.450;2023-04-15T02:48:38;9.75;;;9.75;;
70450;SDS011;58869;51.982;4.450;2023-04-15T02:51:14;9.89;;;9.89;;
70450;SDS011;58869;51.982;4.450;2023-04-15T02:53:58;10.53;;;10.53;;
70450;SDS011;58869;51.982;4.450;2023-04-15T02:56:37;10.44;;;10.44;;
70450;SDS011;58869;51.982;4.450;2023-04-15T02:59:03;9.98;;;9.98;;
70450;SDS011;58869;51.982;4.450;2023-04-15T03:01:31;10.46;;;10.46;;
70450;SDS011;58869;51.982;4.450;2023-04-15T03:03:59;10.40;;;10.40;;
70450;SDS011;58869;51.982;4.450;2023-04-15T03:06:27;10.07;;;10.07;;
70450;SDS011;58869;51.982;4.450;2023-04-15T03:08:53;9.93;;;9.93;;
70450;SDS011;58869;51.982;4.450;2023-04-15T03:11:18;10.31;;;10.31;;
70450;SDS011;58869;51.982;4.450;2023-04-15T03:13:44;10.08;;;10.08;;
70450;SDS011;58869;51.982;4.450;2023-04-15T03:16:10;10.50;;;10.50;;
70450;SDS011;58869;51.982;4.450;2023-04-15T03:18:35;10.29;;;10.29;;
70450;SDS011;58869;51.982;4.450;2023-04-15T03:21:01;10.66;;;10.66;;
70450;SDS011;58869;51.982;4.450;2023-04-15T03:23:29;10.59;;;10.59;;
70450;SDS011;58869;51.982;4.450;2023-04-15T03:25:56;10.88;;;10.88;;
70450;SDS011;58869;51.982;4.450;2023-04-15T03:28:46;10.70;;;10.70;;
70450;SDS011;58869;51.982;4.450;2023-04-15T03:31:10;11.23;;;11.23;;
70450;SDS011;58869;51.982;4.450;2023-04-15T03:33:36;11.28;;;11.28;;
70450;SDS011;58869;51.982;4.450;2023-04-15T03:36:04;11.22;;;11.22;;
70450;SDS011;58869;51.982;4.450;2023-04-15T03:38:30;11.29;;;11.29;;
70450;SDS011;58869;51.982;4.450;2023-04-15T03:40:56;11.91;;;11.91;;
70450;SDS011;58869;51.982;4.450;2023-04-15T03:43:27;11.90;;;11.90;;
70450;SDS011;58869;51.982;4.450;2023-04-15T03:45:52;11.77;;;11.77;;
70450;SDS011;58869;51.982;4.450;2023-04-15T03:48:18;11.22;;;11.22;;
70450;SDS011;58869;51.982;4.450;2023-04-15T03:50:43;11.60;;;11.60;;
70450;SDS011;58869;51.982;4.450;2023-04-15T03:53:10;11.13;;;11.13;;
70450;SDS011;58869;51.982;4.450;2023-04-15T03:55:35;11.61;;;11.61;;
70450;SDS011;58869;51.982;4.450;2023-04-15T03:58:06;11.31;;;11.31;;
70450;SDS011;58869;51.982;4.450;2023-04-15T04:00:32;11.42;;;11.42;;
70450;SDS011;58869;51.982;4.450;2023-04-15T04:02:57;11.95;;;11.95;;
70450;SDS011;58869;51.982;4.450;2023-04-15T04:05:23;11.65;;;11.65;;
70450;SDS011;58869;51.982;4.450;2023-04-15T04:08:24;11.69;;;11.69;;
70450;SDS011;58869;51.982;4.450;2023-04-15T04:10:51;11.83;;;11.83;;
70450;SDS011;58869;51.982;4.450;2023-04-15T04:13:19;11.47;;;11.47;;
70450;SDS011;58869;51.982;4.450;2023-04-15T04:15:52;11.87;;;11.87;;
70450;SDS011;58869;51.982;4.450;2023-04-15T04:18:18;11.84;;;11.84;;
70450;SDS011;58869;51.982;4.450;2023-04-15T04:20:43;11.72;;;11.72;;
70450;SDS011;58869;51.982;4.450;2023-04-15T04:23:10;11.76;;;11.76;;
70450;SDS011;58869;51.982;4.450;2023-04-15T04:25:35;12.05;;;12.05;;
70450;SDS011;58869;51.982;4.450;2023-04-15T04:28:01;11.99;;;11.99;;
70450;SDS011;58869;51.982;4.450;2023-04-15T04:30:27;11.72;;;11.72;;
70450;SDS011;58869;51.982;4.450;2023-04-15T04:32:53;11.98;;;11.98;;
70450;SDS011;58869;51.982;4.450;2023-04-15T04:35:18;12.31;;;12.31;;
70450;SDS011;58869;51.982;4.450;2023-04-15T04:37:49;12.21;;;12.21;;
70450;SDS011;58869;51.982;4.450;2023-04-15T04:40:17;11.95;;;11.95;;
70450;SDS011;58869;51.982;4.450;2023-04-15T04:42:45;11.97;;;11.97;;
70450;SDS011;58869;51.982;4.450;2023-04-15T04:45:22;12.21;;;12.21;;
70450;SDS011;58869;51.982;4.450;2023-04-15T04:47:47;11.96;;;11.96;;
70450;SDS011;58869;51.982;4.450;2023-04-15T04:50:13;12.19;;;12.19;;
70450;SDS011;58869;51.982;4.450;2023-04-15T04:52:41;12.38;;;12.38;;
70450;SDS011;58869;51.982;4.450;2023-04-15T04:55:10;11.96;;;11.96;;
70450;SDS011;58869;51.982;4.450;2023-04-15T04:57:38;12.40;;;12.40;;
70450;SDS011;58869;51.982;4.450;2023-04-15T05:00:07;12.09;;;12.09;;
70450;SDS011;58869;51.982;4.450;2023-04-15T05:02:33;12.48;;;12.48;;
70450;SDS011;58869;51.982;4.450;2023-04-15T05:04:59;12.02;;;12.02;;
70450;SDS011;58869;51.982;4.450;2023-04-15T05:07:34;12.04;;;12.04;;
70450;SDS011;58869;51.982;4.450;2023-04-15T05:10:07;12.77;;;12.77;;
70450;SDS011;58869;51.982;4.450;2023-04-15T05:12:41;12.53;;;12.53;;
70450;SDS011;58869;51.982;4.450;2023-04-15T05:15:07;12.56;;;12.56;;
70450;SDS011;58869;51.982;4.450;2023-04-15T05:17:45;12.57;;;12.57;;
70450;SDS011;58869;51.982;4.450;2023-04-15T05:20:11;12.59;;;12.59;;
70450;SDS011;58869;51.982;4.450;2023-04-15T05:22:37;12.29;;;12.29;;
70450;SDS011;58869;51.982;4.450;2023-04-15T05:25:03;12.37;;;12.37;;
70450;SDS011;58869;51.982;4.450;2023-04-15T05:27:29;12.47;;;12.47;;
70450;SDS011;58869;51.982;4.450;2023-04-15T05:29:55;12.27;;;12.27;;
70450;SDS011;58869;51.982;4.450;2023-04-15T05:32:20;12.46;;;12.46;;
70450;SDS011;58869;51.982;4.450;2023-04-15T05:34:46;12.47;;;12.47;;
70450;SDS011;58869;51.982;4.450;2023-04-15T05:37:11;12.41;;;12.41;;
70450;SDS011;58869;51.982;4.450;2023-04-15T05:39:37;12.38;;;12.38;;
70450;SDS011;58869;51.982;4.450;2023-04-15T05:42:03;13.01;;;13.01;;
70450;SDS011;58869;51.982;4.450;2023-04-15T05:44:30;12.41;;;12.41;;
70450;SDS011;58869;51.982;4.450;2023-04-15T05:47:07;12.67;;;12.67;;
70450;SDS011;58869;51.982;4.450;2023-04-15T05:49:35;12.59;;;12.55;;
70450;SDS011;58869;51.982;4.450;2023-04-15T05:52:04;12.40;;;12.40;;
70450;SDS011;58869;51.982;4.450;2023-04-15T05:54:35;12.16;;;12.16;;
70450;SDS011;58869;51.982;4.450;2023-04-15T05:57:00;12.52;;;12.52;;
70450;SDS011;58869;51.982;4.450;2023-04-15T05:59:26;12.88;;;12.88;;
70450;SDS011;58869;51.982;4.450;2023-04-15T06:01:52;12.45;;;12.45;;
70450;SDS011;58869;51.982;4.450;2023-04-15T06:04:21;12.50;;;12.50;;
70450;SDS011;58869;51.982;4.450;2023-04-15T06:06:47;12.24;;;12.24;;
70450;SDS011;58869;51.982;4.450;2023-04-15T06:09:13;13.15;;;13.07;;
70450;SDS011;58869;51.982;4.450;2023-04-15T06:11:44;12.66;;;12.66;;
70450;SDS011;58869;51.982;4.450;2023-04-15T06:14:09;12.57;;;12.56;;
70450;SDS011;58869;51.982;4.450;2023-04-15T06:16:38;12.41;;;12.41;;
70450;SDS011;58869;51.982;4.450;2023-04-15T06:19:06;12.65;;;12.65;;
70450;SDS011;58869;51.982;4.450;2023-04-15T06:21:31;12.60;;;12.60;;
70450;SDS011;58869;51.982;4.450;2023-04-15T06:23:58;11.99;;;11.99;;
70450;SDS011;58869;51.982;4.450;2023-04-15T06:26:27;12.49;;;12.49;;
70450;SDS011;58869;51.982;4.450;2023-04-15T06:28:52;12.22;;;12.22;;
70450;SDS011;58869;51.982;4.450;2023-04-15T06:31:18;12.80;;;12.80;;
70450;SDS011;58869;51.982;4.450;2023-04-15T06:33:43;12.54;;;12.53;;
70450;SDS011;58869;51.982;4.450;2023-04-15T06:36:10;12.37;;;12.36;;
70450;SDS011;58869;51.982;4.450;2023-04-15T06:38:36;12.47;;;12.47;;
70450;SDS011;58869;51.982;4.450;2023-04-15T06:41:02;12.57;;;12.57;;
70450;SDS011;58869;51.982;4.450;2023-04-15T06:43:37;12.77;;;12.77;;
70450;SDS011;58869;51.982;4.450;2023-04-15T06:46:09;12.60;;;12.60;;
70450;SDS011;58869;51.982;4.450;2023-04-15T06:48:35;12.52;;;12.52;;
70450;SDS011;58869;51.982;4.450;2023-04-15T06:51:16;12.67;;;12.67;;
70450;SDS011;58869;51.982;4.450;2023-04-15T06:54:27;12.34;;;12.34;;
70450;SDS011;58869;51.982;4.450;2023-04-15T06:56:52;12.30;;;12.30;;
70450;SDS011;58869;51.982;4.450;2023-04-15T06:59:18;12.54;;;12.54;;
70450;SDS011;58869;51.982;4.450;2023-04-15T07:01:44;12.56;;;12.56;;
70450;SDS011;58869;51.982;4.450;2023-04-15T07:04:18;12.40;;;12.40;;
70450;SDS011;58869;51.982;4.450;2023-04-15T07:06:46;12.20;;;12.20;;
70450;SDS011;58869;51.982;4.450;2023-04-15T07:09:11;12.33;;;12.33;;
70450;SDS011;58869;51.982;4.450;2023-04-15T07:11:37;12.19;;;12.19;;
70450;SDS011;58869;51.982;4.450;2023-04-15T07:14:06;11.95;;;11.95;;
70450;SDS011;58869;51.982;4.450;2023-04-15T07:19:29;12.21;;;12.21;;
70450;SDS011;58869;51.982;4.450;2023-04-15T07:21:55;12.34;;;12.34;;
70450;SDS011;58869;51.982;4.450;2023-04-15T07:24:23;11.86;;;11.83;;
70450;SDS011;58869;51.982;4.450;2023-04-15T07:26:52;11.99;;;11.99;;
70450;SDS011;58869;51.982;4.450;2023-04-15T07:29:29;11.78;;;11.78;;
70450;SDS011;58869;51.982;4.450;2023-04-15T07:31:54;11.62;;;11.62;;
70450;SDS011;58869;51.982;4.450;2023-04-15T07:34:21;11.46;;;11.46;;
70450;SDS011;58869;51.982;4.450;2023-04-15T07:36:47;11.60;;;11.60;;
70450;SDS011;58869;51.982;4.450;2023-04-15T07:39:18;11.80;;;11.80;;
70450;SDS011;58869;51.982;4.450;2023-04-15T07:41:45;11.98;;;11.98;;
70450;SDS011;58869;51.982;4.450;2023-04-15T07:44:11;11.78;;;11.78;;
70450;SDS011;58869;51.982;4.450;2023-04-15T07:46:37;11.39;;;11.39;;
70450;SDS011;58869;51.982;4.450;2023-04-15T07:49:02;11.27;;;11.27;;
70450;SDS011;58869;51.982;4.450;2023-04-15T07:51:28;11.08;;;11.08;;
70450;SDS011;58869;51.982;4.450;2023-04-15T08:00:05;11.02;;;11.02;;
70450;SDS011;58869;51.982;4.450;2023-04-15T08:02:31;11.11;;;11.11;;
70450;SDS011;58869;51.982;4.450;2023-04-15T08:07:45;11.40;;;11.40;;
70450;SDS011;58869;51.982;4.450;2023-04-15T08:10:10;11.52;;;11.51;;
70450;SDS011;58869;51.982;4.450;2023-04-15T08:12:39;11.31;;;11.31;;
70450;SDS011;58869;51.982;4.450;2023-04-15T08:15:04;11.67;;;11.67;;
70450;SDS011;58869;51.982;4.450;2023-04-15T08:17:35;11.67;;;11.67;;
70450;SDS011;58869;51.982;4.450;2023-04-15T08:20:05;12.21;;;12.21;;
70450;SDS011;58869;51.982;4.450;2023-04-15T08:22:51;11.97;;;11.97;;
70450;SDS011;58869;51.982;4.450;2023-04-15T08:25:17;11.21;;;11.21;;
70450;SDS011;58869;51.982;4.450;2023-04-15T08:27:46;11.39;;;11.38;;
70450;SDS011;58869;51.982;4.450;2023-04-15T08:30:19;11.98;;;11.98;;
70450;SDS011;58869;51.982;4.450;2023-04-15T08:38:51;11.79;;;11.79;;
70450;SDS011;58869;51.982;4.450;2023-04-15T08:41:22;11.52;;;11.52;;
70450;SDS011;58869;51.982;4.450;2023-04-15T08:43:53;11.92;;;11.70;;
70450;SDS011;58869;51.982;4.450;2023-04-15T08:46:25;11.23;;;11.22;;
70450;SDS011;58869;51.982;4.450;2023-04-15T08:48:52;10.97;;;10.97;;
70450;SDS011;58869;51.982;4.450;2023-04-15T08:51:21;11.19;;;11.19;;
70450;SDS011;58869;51.982;4.450;2023-04-15T08:53:46;10.86;;;10.86;;
70450;SDS011;58869;51.982;4.450;2023-04-15T08:56:26;10.78;;;10.78;;
70450;SDS011;58869;51.982;4.450;2023-04-15T08:58:53;11.85;;;11.84;;
70450;SDS011;58869;51.982;4.450;2023-04-15T09:01:19;11.66;;;11.66;;
70450;SDS011;58869;51.982;4.450;2023-04-15T09:03:46;12.62;;;12.36;;
70450;SDS011;58869;51.982;4.450;2023-04-15T09:06:13;12.51;;;12.48;;
70450;SDS011;58869;51.982;4.450;2023-04-15T09:08:41;12.32;;;12.29;;
70450;SDS011;58869;51.982;4.450;2023-04-15T09:11:06;11.70;;;11.65;;
70450;SDS011;58869;51.982;4.450;2023-04-15T09:13:32;11.68;;;11.34;;
70450;SDS011;58869;51.982;4.450;2023-04-15T09:19:21;10.67;;;10.67;;
70450;SDS011;58869;51.982;4.450;2023-04-15T09:21:50;10.30;;;10.30;;
70450;SDS011;58869;51.982;4.450;2023-04-15T09:24:18;10.05;;;10.05;;
70450;SDS011;58869;51.982;4.450;2023-04-15T09:26:43;10.34;;;10.34;;
70450;SDS011;58869;51.982;4.450;2023-04-15T09:29:09;9.57;;;9.57;;
70450;SDS011;58869;51.982;4.450;2023-04-15T09:31:41;9.67;;;9.60;;
70450;SDS011;58869;51.982;4.450;2023-04-15T09:34:09;9.46;;;9.40;;
70450;SDS011;58869;51.982;4.450;2023-04-15T09:36:51;8.81;;;8.81;;
70450;SDS011;58869;51.982;4.450;2023-04-15T09:39:18;8.10;;;8.10;;
70450;SDS011;58869;51.982;4.450;2023-04-15T09:41:44;7.92;;;7.71;;
70450;SDS011;58869;51.982;4.450;2023-04-15T09:44:52;7.02;;;6.89;;
70450;SDS011;58869;51.982;4.450;2023-04-15T09:47:04;7.08;;;7.02;;
70450;SDS011;58869;51.982;4.450;2023-04-15T09:49:53;7.51;;;7.51;;
70450;SDS011;58869;51.982;4.450;2023-04-15T09:52:20;6.96;;;6.96;;
70450;SDS011;58869;51.982;4.450;2023-04-15T09:54:45;6.28;;;6.28;;
70450;SDS011;58869;51.982;4.450;2023-04-15T09:57:11;5.66;;;5.66;;
70450;SDS011;58869;51.982;4.450;2023-04-15T09:59:37;5.48;;;5.48;;
70450;SDS011;58869;51.982;4.450;2023-04-15T10:02:08;5.06;;;5.06;;
70450;SDS011;58869;51.982;4.450;2023-04-15T10:04:39;4.50;;;4.50;;
70450;SDS011;58869;51.982;4.450;2023-04-15T10:07:06;3.82;;;3.82;;
70450;SDS011;58869;51.982;4.450;2023-04-15T10:09:34;4.35;;;4.35;;
70450;SDS011;58869;51.982;4.450;2023-04-15T10:12:01;3.85;;;3.85;;
70450;SDS011;58869;51.982;4.450;2023-04-15T10:14:34;3.62;;;3.62;;
70450;SDS011;58869;51.982;4.450;2023-04-15T10:17:17;3.64;;;3.64;;
70450;SDS011;58869;51.982;4.450;2023-04-15T10:19:49;4.08;;;4.08;;
70450;SDS011;58869;51.982;4.450;2023-04-15T10:22:40;4.66;;;4.66;;
70450;SDS011;58869;51.982;4.450;2023-04-15T10:25:06;4.38;;;4.38;;
70450;SDS011;58869;51.982;4.450;2023-04-15T10:27:41;3.90;;;3.90;;
70450;SDS011;58869;51.982;4.450;2023-04-15T10:30:08;4.33;;;4.33;;
70450;SDS011;58869;51.982;4.450;2023-04-15T10:32:35;4.35;;;4.35;;
70450;SDS011;58869;51.982;4.450;2023-04-15T10:35:03;4.25;;;4.25;;
70450;SDS011;58869;51.982;4.450;2023-04-15T10:49:12;4.11;;;4.11;;
70450;SDS011;58869;51.982;4.450;2023-04-15T10:51:57;4.22;;;4.22;;
70450;SDS011;58869;51.982;4.450;2023-04-15T10:57:20;3.42;;;3.42;;
70450;SDS011;58869;51.982;4.450;2023-04-15T11:02:48;4.51;;;4.51;;
70450;SDS011;58869;51.982;4.450;2023-04-15T11:06:00;4.94;;;4.94;;
70450;SDS011;58869;51.982;4.450;2023-04-15T11:11:20;4.99;;;4.99;;
70450;SDS011;58869;51.982;4.450;2023-04-15T11:13:47;5.32;;;5.32;;
70450;SDS011;58869;51.982;4.450;2023-04-15T11:16:14;5.64;;;5.64;;
70450;SDS011;58869;51.982;4.450;2023-04-15T11:18:39;5.48;;;5.48;;
70450;SDS011;58869;51.982;4.450;2023-04-15T11:21:05;5.08;;;5.08;;
70450;SDS011;58869;51.982;4.450;2023-04-15T11:23:39;4.73;;;4.73;;
70450;SDS011;58869;51.982;4.450;2023-04-15T11:26:10;4.92;;;4.92;;
70450;SDS011;58869;51.982;4.450;2023-04-15T11:28:39;5.21;;;5.21;;
70450;SDS011;58869;51.982;4.450;2023-04-15T11:31:09;5.14;;;5.14;;
70450;SDS011;58869;51.982;4.450;2023-04-15T11:33:37;5.07;;;5.07;;
70450;SDS011;58869;51.982;4.450;2023-04-15T11:36:18;4.87;;;4.87;;
70450;SDS011;58869;51.982;4.450;2023-04-15T11:38:45;4.88;;;4.88;;
70450;SDS011;58869;51.982;4.450;2023-04-15T11:41:11;5.31;;;5.31;;
70450;SDS011;58869;51.982;4.450;2023-04-15T11:43:37;5.26;;;5.26;;
70450;SDS011;58869;51.982;4.450;2023-04-15T11:46:02;4.98;;;4.98;;
70450;SDS011;58869;51.982;4.450;2023-04-15T11:48:29;3.84;;;3.84;;
70450;SDS011;58869;51.982;4.450;2023-04-15T11:50:57;3.79;;;3.79;;
70450;SDS011;58869;51.982;4.450;2023-04-15T11:53:34;4.06;;;4.06;;
70450;SDS011;58869;51.982;4.450;2023-04-15T11:56:04;3.95;;;3.95;;
70450;SDS011;58869;51.982;4.450;2023-04-15T11:58:30;4.62;;;4.62;;
70450;SDS011;58869;51.982;4.450;2023-04-15T12:00:56;4.69;;;4.69;;
70450;SDS011;58869;51.982;4.450;2023-04-15T12:06:11;4.14;;;4.14;;
70450;SDS011;58869;51.982;4.450;2023-04-15T12:08:54;4.64;;;4.64;;
70450;SDS011;58869;51.982;4.450;2023-04-15T12:16:34;4.71;;;4.71;;
70450;SDS011;58869;51.982;4.450;2023-04-15T12:19:08;4.53;;;4.53;;
70450;SDS011;58869;51.982;4.450;2023-04-15T12:21:37;4.56;;;4.56;;
70450;SDS011;58869;51.982;4.450;2023-04-15T12:24:05;4.91;;;4.91;;
70450;SDS011;58869;51.982;4.450;2023-04-15T12:26:45;5.11;;;5.11;;
70450;SDS011;58869;51.982;4.450;2023-04-15T12:29:13;5.27;;;5.27;;
70450;SDS011;58869;51.982;4.450;2023-04-15T12:31:51;5.42;;;5.42;;
70450;SDS011;58869;51.982;4.450;2023-04-15T12:36:53;6.14;;;6.08;;
70450;SDS011;58869;51.982;4.450;2023-04-15T12:39:22;5.14;;;5.11;;
70450;SDS011;58869;51.982;4.450;2023-04-15T12:41:52;5.26;;;5.26;;
70450;SDS011;58869;51.982;4.450;2023-04-15T12:44:19;5.04;;;5.04;;
70450;SDS011;58869;51.982;4.450;2023-04-15T12:46:46;5.11;;;5.11;;
70450;SDS011;58869;51.982;4.450;2023-04-15T12:49:11;5.28;;;5.28;;
70450;SDS011;58869;51.982;4.450;2023-04-15T12:51:38;5.47;;;5.47;;
70450;SDS011;58869;51.982;4.450;2023-04-15T12:54:04;5.35;;;5.35;;
70450;SDS011;58869;51.982;4.450;2023-04-15T12:56:30;5.20;;;5.20;;
70450;SDS011;58869;51.982;4.450;2023-04-15T12:58:58;5.59;;;5.59;;
70450;SDS011;58869;51.982;4.450;2023-04-15T13:01:23;5.54;;;5.54;;
70450;SDS011;58869;51.982;4.450;2023-04-15T13:03:49;4.77;;;4.77;;
70450;SDS011;58869;51.982;4.450;2023-04-15T13:06:15;4.82;;;4.82;;
70450;SDS011;58869;51.982;4.450;2023-04-15T13:08:41;4.55;;;4.55;;
70450;SDS011;58869;51.982;4.450;2023-04-15T13:11:06;4.39;;;4.39;;
70450;SDS011;58869;51.982;4.450;2023-04-15T13:13:32;4.50;;;4.50;;
70450;SDS011;58869;51.982;4.450;2023-04-15T13:15:57;4.08;;;4.08;;
70450;SDS011;58869;51.982;4.450;2023-04-15T13:18:23;4.10;;;4.10;;
70450;SDS011;58869;51.982;4.450;2023-04-15T13:20:49;4.31;;;4.31;;
70450;SDS011;58869;51.982;4.450;2023-04-15T13:23:15;4.48;;;4.48;;
70450;SDS011;58869;51.982;4.450;2023-04-15T13:25:41;4.10;;;4.10;;
70450;SDS011;58869;51.982;4.450;2023-04-15T13:28:06;4.46;;;4.46;;
70450;SDS011;58869;51.982;4.450;2023-04-15T13:30:36;3.71;;;3.71;;
70450;SDS011;58869;51.982;4.450;2023-04-15T13:33:02;3.96;;;3.96;;
70450;SDS011;58869;51.982;4.450;2023-04-15T13:35:28;3.97;;;3.96;;
70450;SDS011;58869;51.982;4.450;2023-04-15T13:37:54;3.86;;;3.85;;
70450;SDS011;58869;51.982;4.450;2023-04-15T13:40:20;4.18;;;4.18;;
70450;SDS011;58869;51.982;4.450;2023-04-15T13:42:45;4.21;;;4.21;;
70450;SDS011;58869;51.982;4.450;2023-04-15T13:45:18;3.68;;;3.68;;
70450;SDS011;58869;51.982;4.450;2023-04-15T13:47:44;4.12;;;4.08;;
70450;SDS011;58869;51.982;4.450;2023-04-15T13:50:10;3.86;;;3.85;;
70450;SDS011;58869;51.982;4.450;2023-04-15T13:52:35;3.62;;;3.62;;
70450;SDS011;58869;51.982;4.450;2023-04-15T13:55:02;4.06;;;4.06;;
70450;SDS011;58869;51.982;4.450;2023-04-15T13:57:28;4.10;;;4.10;;
70450;SDS011;58869;51.982;4.450;2023-04-15T13:59:54;5.31;;;5.31;;
70450;SDS011;58869;51.982;4.450;2023-04-15T14:02:20;6.54;;;6.54;;
70450;SDS011;58869;51.982;4.450;2023-04-15T14:04:47;7.40;;;7.40;;
70450;SDS011;58869;51.982;4.450;2023-04-15T14:07:12;6.76;;;6.75;;
70450;SDS011;58869;51.982;4.450;2023-04-15T14:09:38;6.75;;;6.75;;
70450;SDS011;58869;51.982;4.450;2023-04-15T14:12:03;6.61;;;6.61;;
70450;SDS011;58869;51.982;4.450;2023-04-15T14:14:29;5.58;;;5.58;;
70450;SDS011;58869;51.982;4.450;2023-04-15T14:16:55;4.68;;;4.68;;
70450;SDS011;58869;51.982;4.450;2023-04-15T14:19:21;4.44;;;4.44;;
70450;SDS011;58869;51.982;4.450;2023-04-15T14:21:47;4.49;;;4.49;;
70450;SDS011;58869;51.982;4.450;2023-04-15T14:24:13;4.03;;;4.03;;
70450;SDS011;58869;51.982;4.450;2023-04-15T14:26:38;4.44;;;4.44;;
70450;SDS011;58869;51.982;4.450;2023-04-15T14:29:04;3.96;;;3.96;;
70450;SDS011;58869;51.982;4.450;2023-04-15T14:31:29;4.20;;;4.20;;
70450;SDS011;58869;51.982;4.450;2023-04-15T14:33:55;3.96;;;3.96;;
70450;SDS011;58869;51.982;4.450;2023-04-15T14:36:20;4.09;;;4.06;;
70450;SDS011;58869;51.982;4.450;2023-04-15T14:38:45;4.15;;;4.15;;
70450;SDS011;58869;51.982;4.450;2023-04-15T14:41:11;4.09;;;4.09;;
70450;SDS011;58869;51.982;4.450;2023-04-15T14:43:36;4.03;;;4.03;;
70450;SDS011;58869;51.982;4.450;2023-04-15T14:46:02;4.04;;;4.04;;
70450;SDS011;58869;51.982;4.450;2023-04-15T14:48:28;4.14;;;4.14;;
70450;SDS011;58869;51.982;4.450;2023-04-15T14:50:55;4.33;;;4.33;;
70450;SDS011;58869;51.982;4.450;2023-04-15T14:53:21;4.32;;;4.32;;
70450;SDS011;58869;51.982;4.450;2023-04-15T14:55:46;4.36;;;4.36;;
70450;SDS011;58869;51.982;4.450;2023-04-15T14:58:12;4.83;;;4.83;;
70450;SDS011;58869;51.982;4.450;2023-04-15T15:00:38;4.43;;;4.43;;
70450;SDS011;58869;51.982;4.450;2023-04-15T15:03:06;4.46;;;4.46;;
70450;SDS011;58869;51.982;4.450;2023-04-15T15:05:43;4.89;;;4.89;;
70450;SDS011;58869;51.982;4.450;2023-04-15T15:08:11;5.01;;;5.01;;
70450;SDS011;58869;51.982;4.450;2023-04-15T15:10:37;5.39;;;5.39;;
70450;SDS011;58869;51.982;4.450;2023-04-15T15:13:05;7.10;;;7.10;;
70450;SDS011;58869;51.982;4.450;2023-04-15T15:15:32;8.65;;;8.62;;
70450;SDS011;58869;51.982;4.450;2023-04-15T15:17:58;7.60;;;7.56;;
70450;SDS011;58869;51.982;4.450;2023-04-15T15:20:24;7.32;;;7.31;;
70450;SDS011;58869;51.982;4.450;2023-04-15T15:22:50;9.94;;;9.93;;
70450;SDS011;58869;51.982;4.450;2023-04-15T15:25:15;8.43;;;8.41;;
70450;SDS011;58869;51.982;4.450;2023-04-15T15:27:41;8.71;;;8.70;;
70450;SDS011;58869;51.982;4.450;2023-04-15T15:30:07;5.64;;;5.64;;
70450;SDS011;58869;51.982;4.450;2023-04-15T15:32:33;6.11;;;6.11;;
70450;SDS011;58869;51.982;4.450;2023-04-15T15:34:58;6.18;;;6.16;;
70450;SDS011;58869;51.982;4.450;2023-04-15T15:37:24;5.74;;;5.74;;